Time;durP1;ratioP1;P1;durP2;ratioP2;P2;SDS_P1;SDS_P2;PMS_P1;PMS_P2;Temp;Humidity;BMP_temperature;BMP_pressure;BME280_temperature;BME280_humidity;BME280_pressure;Samples;Min_cycle;Max_cycle;Signal;HPM_P1;HPM_P2
2023/06/15 00:00:12;;;;;;;15.40;9.45;;;486.40;2380.80;;;;;;5071713;28;20028;-62
2023/06/15 00:02:39;;;;;;;11.88;8.23;;;486.40;2380.80;;;;;;5072097;28;20013;-62
2023/06/15 00:05:05;;;;;;;12.45;8.73;;;486.40;2380.80;;;;;;5071217;28;20064;-64
2023/06/15 00:07:31;;;;;;;12.52;9.20;;;461.70;2380.80;;;;;;5071895;28;20021;-61
2023/06/15 00:09:56;;;;;;;12.50;7.90;;;461.60;2380.80;;;;;;5071381;28;20036;-60
2023/06/15 00:12:23;;;;;;;13.30;8.65;;;461.60;2380.80;;;;;;5071510;28;20027;-61
2023/06/15 00:14:49;;;;;;;15.70;9.52;;;461.40;2380.80;;;;;;5071761;28;20037;-62
2023/06/15 00:17:14;;;;;;;10.57;8.35;;;461.30;2380.80;;;;;;5071615;28;20031;-62
2023/06/15 00:19:41;;;;;;;12.45;8.30;;;461.20;2380.80;;;;;;5071925;28;20081;-61
2023/06/15 00:22:09;;;;;;;10.45;7.88;;;461.20;2380.80;;;;;;5071668;28;20107;-64
2023/06/15 00:24:35;;;;;;;10.43;7.93;;;461.30;2380.80;;;;;;5071207;28;20074;-65
2023/06/15 00:27:01;;;;;;;13.10;8.90;;;461.30;2380.80;;;;;;5071400;28;20021;-61
2023/06/15 00:29:27;;;;;;;11.77;7.80;;;461.40;2380.80;;;;;;5052060;28;20075;-61
2023/06/15 00:31:52;;;;;;;12.98;8.73;;;461.40;2380.80;;;;;;5071214;28;20474;-61
2023/06/15 00:34:18;;;;;;;12.40;8.02;;;461.40;2380.80;;;;;;5071238;28;20028;-61
2023/06/15 00:36:44;;;;;;;11.23;8.48;;;461.40;2380.80;;;;;;5071186;28;20041;-63
2023/06/15 00:39:09;;;;;;;10.30;8.10;;;461.40;2380.80;;;;;;5071009;28;20077;-62
2023/06/15 00:41:42;;;;;;;12.27;8.63;;;461.40;2380.80;;;;;;5071640;28;20028;-61
2023/06/15 00:44:09;;;;;;;12.73;7.78;;;461.40;2380.80;;;;;;5071313;28;20043;-63
2023/06/15 00:46:35;;;;;;;12.50;8.18;;;461.20;2380.80;;;;;;5071113;28;20028;-62
2023/06/15 00:49:02;;;;;;;13.85;8.85;;;461.00;2380.80;;;;;;5070953;28;20571;-61
2023/06/15 00:51:28;;;;;;;12.02;8.95;;;460.90;2380.80;;;;;;5071382;28;20035;-60
2023/06/15 00:53:54;;;;;;;12.15;8.55;;;461.00;2380.80;;;;;;5070566;28;20441;-61
2023/06/15 00:56:19;;;;;;;14.10;9.57;;;460.80;2380.80;;;;;;5071416;28;20020;-61
2023/06/15 00:58:46;;;;;;;13.05;9.55;;;460.80;2380.80;;;;;;5070691;28;20023;-61
2023/06/15 01:01:12;;;;;;;14.52;9.98;;;460.80;2380.80;;;;;;5070551;28;20486;-62
2023/06/15 01:03:40;;;;;;;12.05;8.93;;;436.10;2355.20;;;;;;5070655;28;20025;-61
2023/06/15 01:06:13;;;;;;;15.98;9.60;;;436.10;2355.20;;;;;;5070814;28;20025;-63
2023/06/15 01:08:40;;;;;;;11.07;8.55;;;436.00;2355.20;;;;;;5070634;28;20024;-61
2023/06/15 01:11:06;;;;;;;17.05;9.50;;;435.90;2355.20;;;;;;5070824;28;20111;-62
2023/06/15 01:13:34;;;;;;;13.13;8.98;;;;;;;;;;5070470;28;20017;-61
2023/06/15 01:16:04;;;;;;;13.48;9.73;;;436.10;2355.20;;;;;;5070834;28;20020;-65
2023/06/15 01:18:33;;;;;;;12.13;9.23;;;435.90;2355.20;;;;;;5070306;28;20027;-64
2023/06/15 01:21:01;;;;;;;14.75;8.98;;;;;;;;;;5070638;28;20043;-63
2023/06/15 01:23:30;;;;;;;13.00;8.75;;;;;;;;;;5070379;28;20710;-62
2023/06/15 01:26:00;;;;;;;15.00;9.13;;;;;;;;;;5070611;28;20019;-61
2023/06/15 01:28:30;;;;;;;12.75;9.82;;;;;;;;;;5070220;28;20107;-64
2023/06/15 01:30:56;;;;;;;15.05;9.88;;;;;;;;;;5070145;28;20036;-62
2023/06/15 01:33:23;;;;;;;19.05;9.10;;;;;;;;;;5070274;28;20025;-61
2023/06/15 01:35:49;;;;;;;13.20;8.93;;;;;;;;;;5069782;28;20042;-62
2023/06/15 01:38:16;;;;;;;11.02;8.68;;;;;;;;;;5069854;28;20044;-61
2023/06/15 01:40:43;;;;;;;10.38;8.40;;;;;;;;;;5069835;28;20039;-65
2023/06/15 01:43:15;;;;;;;10.95;8.63;;;;;;;;;;5069813;28;20078;-62
2023/06/15 01:45:41;;;;;;;11.45;9.02;;;;;;;;;;5069798;28;20470;-61
2023/06/15 01:48:08;;;;;;;16.25;9.75;;;;;;;;;;5070239;28;20052;-61
2023/06/15 01:50:34;;;;;;;11.13;8.05;;;;;;;;;;5069673;28;20086;-61
2023/06/15 01:53:01;;;;;;;15.30;9.13;;;;;;;;;;5070229;28;20024;-65
2023/06/15 01:55:27;;;;;;;10.73;8.13;;;;;;;;;;5069931;28;20027;-64
2023/06/15 01:57:53;;;;;;;13.02;8.30;;;;;;;;;;5051712;28;20427;-62
2023/06/15 02:00:21;;;;;;;11.77;7.63;;;;;;;;;;5069443;28;20056;-61
2023/06/15 02:02:47;;;;;;;11.90;8.23;;;;;;;;;;5060562;28;20017;-62
2023/06/15 02:05:13;;;;;;;10.80;8.20;;;;;;;;;;5065303;28;20146;-66
2023/06/15 02:07:40;;;;;;;11.57;8.18;;;;;;;;;;5069337;28;20032;-61
2023/06/15 02:10:06;;;;;;;10.15;8.95;;;;;;;;;;5069301;28;21524;-62
2023/06/15 02:12:32;;;;;;;11.13;8.85;;;;;;;;;;5069548;28;20052;-61
2023/06/15 02:15:02;;;;;;;11.35;8.00;;;;;;;;;;5069395;28;20040;-61
2023/06/15 02:17:31;;;;;;;12.95;8.65;;;;;;;;;;5069855;28;20028;-65
2023/06/15 02:19:58;;;;;;;14.68;8.70;;;;;;;;;;5069314;28;20497;-62
2023/06/15 02:22:24;;;;;;;9.57;7.75;;;;;;;;;;5069473;28;20025;-62
2023/06/15 02:24:50;;;;;;;12.38;8.82;;;;;;;;;;5069524;28;20017;-63
2023/06/15 02:27:16;;;;;;;13.02;8.93;;;;;;;;;;5069125;28;20028;-64
2023/06/15 02:29:42;;;;;;;12.13;9.13;;;;;;;;;;5069016;28;20040;-62
2023/06/15 02:32:11;;;;;;;15.98;10.30;;;;;;;;;;5069451;28;20024;-63
2023/06/15 02:34:37;;;;;;;16.00;9.27;;;;;;;;;;5069027;28;20029;-62
2023/06/15 02:37:03;;;;;;;14.77;9.40;;;;;;;;;;5068810;28;20071;-62
2023/06/15 02:39:30;;;;;;;11.82;9.20;;;;;;;;;;5069152;28;20108;-61
2023/06/15 02:41:56;;;;;;;12.40;9.55;;;;;;;;;;5068926;28;20471;-62
2023/06/15 02:44:22;;;;;;;12.82;8.55;;;;;;;;;;5069182;28;20032;-62
2023/06/15 02:46:48;;;;;;;12.75;9.50;;;;;;;;;;5068974;28;20020;-62
2023/06/15 02:49:18;;;;;;;13.68;9.75;;;;;;;;;;5068771;28;20074;-65
2023/06/15 02:51:44;;;;;;;13.43;9.93;;;;;;;;;;5068288;28;20051;-64
2023/06/15 02:54:10;;;;;;;12.93;8.95;;;;;;;;;;5068809;28;20458;-62
2023/06/15 02:56:36;;;;;;;10.05;8.75;;;;;;;;;;5069301;28;20028;-62
2023/06/15 02:59:02;;;;;;;14.63;9.73;;;;;;;;;;5069147;28;20029;-62
2023/06/15 03:01:37;;;;;;;11.77;8.48;;;;;;;;;;5069323;28;20598;-63
2023/06/15 03:04:03;;;;;;;11.50;8.82;;;;;;;;;;5068713;28;20089;-65
2023/06/15 03:06:33;;;;;;;14.40;8.73;;;;;;;;;;5069261;28;20394;-64
2023/06/15 03:09:00;;;;;;;13.27;9.30;;;;;;;;;;5056194;28;20051;-61
2023/06/15 03:11:26;;;;;;;11.95;9.05;;;;;;;;;;5068765;28;20052;-66
2023/06/15 03:13:53;;;;;;;12.95;9.00;;;;;;;;;;5068768;28;20024;-62
2023/06/15 03:16:20;;;;;;;14.32;9.02;;;;;;;;;;5068676;28;20029;-60
2023/06/15 03:18:47;;;;;;;11.63;8.73;;;;;;;;;;5068527;28;20017;-64
2023/06/15 03:21:14;;;;;;;13.73;9.80;;;;;;;;;;5068821;28;20055;-61
2023/06/15 03:23:42;;;;;;;13.20;9.23;;;;;;;;;;5068564;28;20024;-61
2023/06/15 03:26:10;;;;;;;14.35;8.25;;;;;;;;;;5068803;28;20435;-61
2023/06/15 03:28:38;;;;;;;12.65;9.73;;;;;;;;;;5068515;28;20051;-61
2023/06/15 03:31:07;;;;;;;13.75;9.05;;;;;;;;;;5068587;28;20032;-62
2023/06/15 03:33:33;;;;;;;14.02;7.75;;;;;;;;;;5068262;28;20067;-62
2023/06/15 03:36:01;;;;;;;9.27;8.05;;;;;;;;;;5068551;28;20037;-61
2023/06/15 03:38:27;;;;;;;12.23;8.90;;;;;;;;;;5068158;28;20119;-65
2023/06/15 03:40:53;;;;;;;10.65;8.50;;;;;;;;;;5068425;28;20108;-61
2023/06/15 03:43:19;;;;;;;13.18;8.68;;;;;;;;;;5068689;28;20104;-62
2023/06/15 03:45:45;;;;;;;13.57;9.70;;;;;;;;;;5068242;28;20546;-64
2023/06/15 03:48:11;;;;;;;18.33;8.45;;;;;;;;;;5068508;28;20025;-64
2023/06/15 03:50:37;;;;;;;13.57;9.30;;;;;;;;;;5068678;28;20033;-61
2023/06/15 03:53:03;;;;;;;13.45;8.75;;;;;;;;;;5068008;28;20536;-61
2023/06/15 03:55:30;;;;;;;15.23;8.40;;;;;;;;;;5068596;28;20171;-61
2023/06/15 03:57:56;;;;;;;13.63;9.30;;;;;;;;;;5050519;28;20379;-61
2023/06/15 04:00:22;;;;;;;11.50;8.50;;;;;;;;;;5068264;28;20025;-62
2023/06/15 04:02:48;;;;;;;12.90;8.85;;;;;;;;;;5068634;28;20020;-64
2023/06/15 04:05:14;;;;;;;11.65;8.07;;;;;;;;;;5071494;28;20505;-63
2023/06/15 04:07:40;;;;;;;12.93;8.80;;;;;;;;;;5072002;28;20024;-62
2023/06/15 04:10:08;;;;;;;10.40;8.32;;;;;;;;;;5071642;28;20036;-62
2023/06/15 04:12:34;;;;;;;11.40;9.68;;;;;;;;;;5071910;28;20021;-62
2023/06/15 04:15:00;;;;;;;11.18;8.45;;;;;;;;;;5072158;28;20017;-62
2023/06/15 04:17:26;;;;;;;10.65;8.65;;;;;;;;;;5071633;28;20096;-63
2023/06/15 04:19:52;;;;;;;15.05;8.90;;;;;;;;;;5071467;28;20525;-62
2023/06/15 04:22:18;;;;;;;12.60;8.10;;;;;;;;;;5071900;28;20434;-62
2023/06/15 04:24:44;;;;;;;17.13;8.80;;;;;;;;;;5071296;28;20469;-62
2023/06/15 04:27:12;;;;;;;10.75;9.10;;;;;;;;;;5071012;28;20482;-62
2023/06/15 04:29:45;;;;;;;13.25;8.95;;;;;;;;;;5071702;28;20393;-60
2023/06/15 04:32:11;;;;;;;10.65;8.80;;;;;;;;;;5071526;28;20031;-63
2023/06/15 04:34:37;;;;;;;12.95;9.13;;;;;;;;;;5070846;28;20029;-61
2023/06/15 04:37:06;;;;;;;14.30;8.75;;;;;;;;;;5071037;28;20418;-61
2023/06/15 04:39:33;;;;;;;11.77;8.35;;;;;;;;;;5071156;28;20029;-62
2023/06/15 04:41:59;;;;;;;11.68;8.55;;;;;;;;;;5071530;28;20024;-60
2023/06/15 04:44:25;;;;;;;12.40;9.40;;;;;;;;;;5070942;28;20024;-62
2023/06/15 04:46:51;;;;;;;11.43;8.68;;;;;;;;;;5070858;28;20386;-63
2023/06/15 04:49:17;;;;;;;12.48;8.43;;;;;;;;;;5070494;28;20033;-61
2023/06/15 04:51:43;;;;;;;9.55;8.02;;;;;;;;;;5071059;28;20735;-61
2023/06/15 04:54:09;;;;;;;12.02;8.25;;;;;;;;;;5070911;28;20109;-62
2023/06/15 04:56:36;;;;;;;11.50;8.70;;;;;;;;;;5071096;28;20074;-62
2023/06/15 04:59:02;;;;;;;12.38;8.85;;;;;;;;;;5070957;28;20077;-62
2023/06/15 05:01:29;;;;;;;11.70;9.20;;;;;;;;;;5070808;28;20487;-61
2023/06/15 05:03:55;;;;;;;10.75;7.80;;;;;;;;;;5070121;28;20494;-62
2023/06/15 05:06:21;;;;;;;13.48;8.80;;;;;;;;;;5070892;28;20035;-62
2023/06/15 05:08:47;;;;;;;10.15;8.40;;;;;;;;;;5070819;28;20020;-62
2023/06/15 05:11:13;;;;;;;13.73;9.05;;;;;;;;;;5070768;28;20470;-62
2023/06/15 05:13:39;;;;;;;11.30;8.07;;;;;;;;;;5070312;28;20077;-61
2023/06/15 05:16:05;;;;;;;12.43;8.43;;;;;;;;;;5070371;28;20116;-61
2023/06/15 05:18:31;;;;;;;12.27;7.78;;;;;;;;;;5070363;28;20024;-62
2023/06/15 05:20:57;;;;;;;8.85;7.25;;;;;;;;;;5070528;28;20429;-64
2023/06/15 05:23:23;;;;;;;13.40;8.20;;;;;;;;;;5069884;28;20024;-61
2023/06/15 05:25:50;;;;;;;13.45;8.30;;;;;;;;;;5070613;28;20029;-62
2023/06/15 05:28:18;;;;;;;10.05;8.45;;;;;;;;;;5069740;28;20493;-61
2023/06/15 05:30:44;;;;;;;12.50;8.25;;;;;;;;;;5069563;28;20028;-61
2023/06/15 05:33:11;;;;;;;13.10;8.93;;;;;;;;;;5069901;28;20443;-62
2023/06/15 05:35:37;;;;;;;13.35;8.32;;;;;;;;;;5069678;28;20032;-62
2023/06/15 05:38:03;;;;;;;10.85;8.52;;;;;;;;;;5069835;28;20102;-64
2023/06/15 05:40:29;;;;;;;13.00;8.45;;;;;;;;;;5070542;28;20058;-64
2023/06/15 05:42:56;;;;;;;10.63;9.38;;;;;;;;;;5070138;28;20041;-62
2023/06/15 05:45:24;;;;;;;12.20;8.70;;;;;;;;;;5069599;28;20028;-66
2023/06/15 05:47:50;;;;;;;10.68;8.25;;;;;;;;;;5069925;28;20023;-64
2023/06/15 05:50:16;;;;;;;11.30;8.52;;;;;;;;;;5069746;28;20112;-63
2023/06/15 05:52:42;;;;;;;13.15;8.00;;;;;;;;;;5069860;28;20023;-67
2023/06/15 05:55:08;;;;;;;11.07;9.00;;;;;;;;;;5069575;28;20075;-67
2023/06/15 05:57:34;;;;;;;10.00;8.35;;;;;;;;;;5070012;28;20484;-63
2023/06/15 06:00:03;;;;;;;11.35;8.05;;;;;;;;;;5069490;28;20058;-63
2023/06/15 06:02:29;;;;;;;14.50;8.38;;;;;;;;;;5069461;28;20470;-64
2023/06/15 06:04:55;;;;;;;14.98;9.10;;;;;;;;;;5069372;28;20486;-71
2023/06/15 06:07:22;;;;;;;11.95;8.57;;;;;;;;;;5069510;28;20025;-63
2023/06/15 06:09:48;;;;;;;12.93;8.52;;;;;;;;;;5069325;28;20044;-72
2023/06/15 06:12:14;;;;;;;13.10;8.52;;;;;;;;;;5069306;28;20021;-63
2023/06/15 06:14:40;;;;;;;11.88;9.48;;;;;;;;;;5069495;28;20382;-63
2023/06/15 06:17:06;;;;;;;11.90;9.32;;;;;;;;;;5069117;28;20021;-64
2023/06/15 06:19:32;;;;;;;12.00;8.38;;;;;;;;;;5069233;28;20504;-64
2023/06/15 06:21:58;;;;;;;11.93;9.00;;;;;;;;;;5069420;28;20106;-63
2023/06/15 06:24:24;;;;;;;14.65;9.80;;;;;;;;;;5069515;28;20059;-63
2023/06/15 06:26:51;;;;;;;13.85;9.13;;;;;;;;;;5068792;28;20024;-64
2023/06/15 06:29:17;;;;;;;15.45;11.90;;;;;;;;;;5069042;28;20028;-64
2023/06/15 06:31:43;;;;;;;14.90;11.38;;;;;;;;;;5069196;28;20016;-63
2023/06/15 06:34:09;;;;;;;19.92;13.30;;;;;;;;;;5068669;28;20021;-63
2023/06/15 06:36:35;;;;;;;16.50;11.98;;;;;;;;;;5069532;28;20431;-65
2023/06/15 06:39:01;;;;;;;16.55;11.48;;;;;;;;;;5069309;28;20478;-64
2023/06/15 06:41:27;;;;;;;20.48;11.32;;;;;;;;;;5069287;28;20107;-63
2023/06/15 06:43:53;;;;;;;16.05;11.98;;;;;;;;;;5068483;28;20045;-63
2023/06/15 06:46:22;;;;;;;12.77;10.73;;;;;;;;;;5069356;28;20086;-63
2023/06/15 06:48:48;;;;;;;13.00;9.57;;;;;;;;;;5068834;28;20021;-63
2023/06/15 06:51:14;;;;;;;13.00;10.32;;;;;;;;;;5069170;28;20028;-63
2023/06/15 06:53:40;;;;;;;10.38;8.60;;;;;;;;;;5068792;28;20027;-63
2023/06/15 06:56:06;;;;;;;12.35;9.60;;;;;;;;;;5069041;28;20032;-63
2023/06/15 06:58:32;;;;;;;10.45;9.20;;;;;;;;;;5068796;28;20527;-63
2023/06/15 07:00:58;;;;;;;9.65;8.65;;;;;;;;;;5069171;28;20068;-63
2023/06/15 07:03:24;;;;;;;8.75;7.85;;;;;;;;;;5068770;28;20070;-63
2023/06/15 07:05:50;;;;;;;10.98;9.18;;;;;;;;;;5068333;28;20449;-67
2023/06/15 07:08:16;;;;;;;13.05;9.75;;;;;;;;;;5067724;28;20114;-64
2023/06/15 07:10:42;;;;;;;10.07;8.98;;;;;;;;;;5068575;28;20037;-64
2023/06/15 07:13:08;;;;;;;11.63;7.80;;;;;;;;;;5068466;28;20024;-64
2023/06/15 07:15:34;;;;;;;10.68;8.95;;;;;;;;;;5068754;28;20082;-64
2023/06/15 07:18:00;;;;;;;15.55;9.50;;;;;;;;;;5068657;28;20028;-63
2023/06/15 07:20:26;;;;;;;11.13;8.85;;;;;;;;;;5068410;28;20023;-64
2023/06/15 07:22:53;;;;;;;12.90;9.10;;;;;;;;;;5068055;28;20017;-72
2023/06/15 07:25:19;;;;;;;11.98;9.52;;;;;;;;;;5069092;28;20078;-63
2023/06/15 07:27:45;;;;;;;17.30;10.00;;;;;;;;;;5068841;28;20017;-63
2023/06/15 07:30:12;;;;;;;11.27;8.98;;;;;;;;;;5068595;28;20074;-75
2023/06/15 07:32:38;;;;;;;12.45;9.27;;;;;;;;;;5068454;28;20117;-75
2023/06/15 07:35:04;;;;;;;10.23;7.72;;;;;;;;;;5068428;28;20033;-63
2023/06/15 07:37:30;;;;;;;12.30;8.98;;;;;;;;;;5069840;28;20041;-72
2023/06/15 07:39:56;;;;;;;12.73;9.00;;;;;;;;;;5071981;28;20074;-75
2023/06/15 07:42:22;;;;;;;10.70;8.35;;;;;;;;;;5071924;28;20113;-64
2023/06/15 07:44:48;;;;;;;15.80;9.77;;;;;;;;;;5072378;28;20389;-63
2023/06/15 07:47:14;;;;;;;13.07;9.35;;;;;;;;;;5072055;28;20013;-64
2023/06/15 07:49:40;;;;;;;12.18;8.57;;;;;;;;;;5072012;28;20037;-65
2023/06/15 07:52:06;;;;;;;10.93;9.40;;;;;;;;;;5072024;28;20028;-63
2023/06/15 07:54:33;;;;;;;13.95;9.13;;;;;;;;;;5072137;28;20530;-63
2023/06/15 07:56:59;;;;;;;13.55;9.48;;;;;;;;;;5071888;28;20360;-63
2023/06/15 07:59:25;;;;;;;11.98;10.15;;;;;;;;;;5072119;28;20037;-63
2023/06/15 08:01:51;;;;;;;10.90;9.45;;;;;;;;;;5072112;28;20103;-64
2023/06/15 08:04:17;;;;;;;10.55;8.38;;;;;;;;;;5071674;28;20474;-65
2023/06/15 08:06:43;;;;;;;11.60;9.27;;;;;;;;;;5071834;28;20051;-63
2023/06/15 08:09:11;;;;;;;13.75;10.00;;;;;;;;;;5071684;28;20029;-72
2023/06/15 08:11:37;;;;;;;11.25;9.68;;;;;;;;;;5071677;28;20025;-74
2023/06/15 08:14:03;;;;;;;11.70;9.82;;;;;;;;;;5071386;28;20036;-74
2023/06/15 08:16:29;;;;;;;11.48;9.20;;;;;;;;;;5071836;28;20032;-64
2023/06/15 08:18:55;;;;;;;12.88;9.75;;;;;;;;;;5071494;28;20029;-69
2023/06/15 08:21:21;;;;;;;13.50;9.70;;;;;;;;;;5071718;28;20171;-64
2023/06/15 08:23:47;;;;;;;12.15;10.35;;;;;;;;;;5071068;28;20031;-63
2023/06/15 08:26:13;;;;;;;12.68;9.95;;;;;;;;;;5071802;28;20128;-64
2023/06/15 08:28:39;;;;;;;10.57;8.68;;;;;;;;;;5071246;28;20093;-72
2023/06/15 08:31:05;;;;;;;13.98;10.05;;;;;;;;;;5071368;28;20029;-63
2023/06/15 08:33:32;;;;;;;9.10;8.15;;;;;;;;;;5071204;28;20024;-63
2023/06/15 08:35:58;;;;;;;10.52;9.13;;;;;;;;;;5071558;28;20052;-62
2023/06/15 08:38:24;;;;;;;13.50;9.80;;;;;;;;;;5070525;28;20505;-76
2023/06/15 08:40:50;;;;;;;11.27;9.38;;;;;;;;;;5071778;28;20079;-63
2023/06/15 08:43:17;;;;;;;11.10;9.48;;;;;;;;;;5070867;28;20023;-62
2023/06/15 08:45:48;;;;;;;11.75;10.25;;;;;;;;;;5070905;28;20024;-61
2023/06/15 08:48:16;;;;;;;11.38;9.27;;;;;;;;;;5070795;28;20025;-62
2023/06/15 08:50:44;;;;;;;13.63;10.30;;;;;;;;;;5070736;28;20120;-62
2023/06/15 08:53:11;;;;;;;10.80;9.07;;;;;;;;;;5070852;28;20059;-61
2023/06/15 08:55:37;;;;;;;13.27;10.00;;;;;;;;;;5070609;28;20029;-60
2023/06/15 08:58:05;;;;;;;11.50;8.73;;;;;;;;;;5071057;28;20120;-62
2023/06/15 09:00:31;;;;;;;10.55;8.80;;;;;;;;;;5071141;28;20103;-61
2023/06/15 09:02:58;;;;;;;11.80;9.50;;;;;;;;;;5070663;28;20103;-61
2023/06/15 09:05:26;;;;;;;12.75;10.73;;;;;;;;;;5069673;28;20021;-61
2023/06/15 09:07:52;;;;;;;10.95;9.43;;;;;;;;;;5070383;28;20064;-61
2023/06/15 09:10:19;;;;;;;11.93;10.52;;;;;;;;;;5070810;28;20540;-60
2023/06/15 09:12:46;;;;;;;14.75;10.80;;;;;;;;;;5070946;28;20502;-60
2023/06/15 09:15:17;;;;;;;12.68;9.27;;;;;;;;;;5070924;28;20462;-60
2023/06/15 09:17:43;;;;;;;11.68;9.85;;;;;;;;;;5056393;28;20067;-60
2023/06/15 09:20:09;;;;;;;10.88;9.50;;;;;;;;;;5059617;28;20033;-60
2023/06/15 09:22:42;;;;;;;11.20;9.93;;;;;;;;;;5055241;28;20025;-59
2023/06/15 09:25:08;;;;;;;;;;;;;;;;;;5057330;28;20039;-61
2023/06/15 09:27:34;;;;;;;12.63;11.13;;;;;;;;;;5055323;28;20266;-61
2023/06/15 09:30:05;;;;;;;12.63;10.75;;;;;;;;;;5055488;28;20498;-60
2023/06/15 09:32:31;;;;;;;11.95;10.43;;;;;;;;;;5059796;28;20060;-61
2023/06/15 09:34:58;;;;;;;14.93;11.30;;;;;;;;;;5058643;28;20036;-60
2023/06/15 09:37:25;;;;;;;14.75;10.82;;;;;;;;;;5058063;28;20052;-61
2023/06/15 09:39:52;;;;;;;14.30;11.32;;;;;;;;;;5058485;28;20033;-61
2023/06/15 09:42:18;;;;;;;13.25;11.25;;;;;;;;;;5060124;28;20031;-60
2023/06/15 09:44:44;;;;;;;12.60;10.85;;;;;;;;;;5058084;28;20114;-59
2023/06/15 09:47:17;;;;;;;14.10;11.45;;;;;;;;;;5056586;28;20071;-61
2023/06/15 09:49:46;;;;;;;14.32;11.40;;;;;;;;;;5054769;28;20115;-61
2023/06/15 09:52:12;;;;;;;13.68;12.27;;;;;;;;;;5055874;28;20418;-62
2023/06/15 09:54:39;;;;;;;14.55;11.25;;;;;;;;;;5051369;28;20017;-60
2023/06/15 09:57:05;;;;;;;12.80;11.23;;;;;;;;;;5055125;28;20037;-59
2023/06/15 09:59:31;;;;;;;18.15;13.07;;;;;;;;;;5053930;28;20025;-60
2023/06/15 10:02:00;;;;;;;14.52;12.77;;;;;;;;;;5057733;28;20453;-61
2023/06/15 10:04:32;;;;;;;14.68;11.80;;;;;;;;;;5055266;28;20437;-60
2023/06/15 10:07:01;;;;;;;13.90;11.48;;;;;;;;;;5062615;28;20033;-59
2023/06/15 10:09:29;;;;;;;15.57;12.73;;;;;;;;;;5051898;28;20112;-61
2023/06/15 10:11:57;;;;;;;15.80;12.40;;;;;;;;;;5056756;28;20032;-61
2023/06/15 10:14:29;;;;;;;15.93;12.82;;;;;;;;;;5056952;28;20025;-59
2023/06/15 10:16:59;;;;;;;13.63;11.57;;;;;;;;;;5059292;28;20041;-60
2023/06/15 10:19:26;;;;;;;14.75;11.80;;;;;;;;;;5059599;28;20068;-60
2023/06/15 10:21:53;;;;;;;15.20;12.05;;;;;;;;;;5055108;28;20078;-60
2023/06/15 10:24:21;;;;;;;13.73;11.30;;;;;;;;;;5057452;28;20025;-60
2023/06/15 10:26:47;;;;;;;13.30;11.30;;;;;;;;;;5062596;28;20374;-61
2023/06/15 10:29:19;;;;;;;16.35;12.52;;;;;;;;;;5056394;28;20099;-60
2023/06/15 10:32:05;;;;;;;12.93;11.38;;;;;;;;;;5058967;28;20032;-60
2023/06/15 10:34:40;;;;;;;14.38;12.60;;;;;;;;;;5043850;28;20562;-60
2023/06/15 10:37:30;;;;;;;16.13;12.52;;;;;;;;;;5056069;28;20106;-60
2023/06/15 10:39:57;;;;;;;13.02;11.63;;;;;;;;;;4984823;28;20483;-59
2023/06/15 10:42:27;;;;;;;14.43;11.82;;;;;;;;;;4985619;28;20050;-60
2023/06/15 10:44:53;;;;;;;14.10;11.75;;;;;;;;;;4985196;28;20104;-60
2023/06/15 10:47:22;;;;;;;12.85;11.52;;;;;;;;;;4986076;28;20149;-59
2023/06/15 10:49:52;;;;;;;16.55;11.82;;;;;;;;;;4986368;28;20027;-60
2023/06/15 10:52:18;;;;;;;14.98;12.98;;;;;;;;;;4988126;28;20497;-60
2023/06/15 10:54:44;;;;;;;14.55;12.45;;;;;;;;;;4991753;28;20057;-61
2023/06/15 10:57:15;;;;;;;15.45;12.93;;;;;;;;;;4990762;28;20058;-60
2023/06/15 10:59:43;;;;;;;14.50;12.80;;;;;;;;;;4993623;28;20026;-61
2023/06/15 11:02:27;;;;;;;14.65;12.77;;;;;;;;;;4994209;28;20022;-60
2023/06/15 11:04:53;;;;;;;14.77;12.38;;;;;;;;;;4989806;28;20078;-61
2023/06/15 11:07:30;;;;;;;12.95;11.55;;;;;;;;;;4987729;28;20562;-59
2023/06/15 11:09:57;;;;;;;13.88;12.05;;;;;;;;;;4992256;28;20465;-61
2023/06/15 11:12:35;;;;;;;16.05;13.15;;;589.70;2432.00;;;;;;4992415;28;20022;-62
2023/06/15 11:15:03;;;;;;;13.85;12.55;;;589.70;2432.00;;;;;;4989283;28;20504;-61
2023/06/15 11:17:29;;;;;;;15.13;13.63;;;589.70;2432.00;;;;;;5040751;28;20091;-61
2023/06/15 11:19:58;;;;;;;14.30;12.15;;;614.40;2432.00;;;;;;5063031;28;20024;-60
2023/06/15 11:22:26;;;;;;;14.98;12.65;;;614.40;2432.00;;;;;;5060256;28;20359;-62
2023/06/15 11:24:57;;;;;;;14.52;12.88;;;614.50;2432.00;;;;;;5061988;28;20064;-62
2023/06/15 11:27:22;;;;;;;14.70;12.38;;;614.70;2432.00;;;;;;5058026;28;20033;-62
2023/06/15 11:29:56;;;;;;;14.02;12.25;;;614.50;2432.00;;;;;;5063210;28;20041;-62
2023/06/15 11:32:26;;;;;;;14.20;12.63;;;589.70;2432.00;;;;;;5062711;28;20097;-63
2023/06/15 11:34:56;;;;;;;13.82;12.35;;;614.40;2432.00;;;;;;5058785;28;20057;-62
2023/06/15 11:37:26;;;;;;;14.02;12.63;;;614.60;2432.00;;;;;;5060975;28;20110;-62
2023/06/15 11:39:52;;;;;;;14.13;12.70;;;614.60;2432.00;;;;;;5058866;28;20033;-61
2023/06/15 11:42:19;;;;;;;15.65;14.00;;;614.60;2432.00;;;;;;5062016;28;20502;-62
2023/06/15 11:44:49;;;;;;;13.77;12.38;;;614.60;2432.00;;;;;;5054801;28;20558;-61
2023/06/15 11:47:16;;;;;;;15.32;13.82;;;;;;;;;;5055717;28;20491;-62
2023/06/15 11:49:46;;;;;;;15.35;12.60;;;;;;;;;;5053618;28;20099;-70
2023/06/15 11:52:12;;;;;;;15.32;13.13;;;;;;;;;;5054789;28;20176;-65
2023/06/15 11:54:38;;;;;;;14.60;12.90;;;614.60;2432.00;;;;;;5061505;28;20016;-64
2023/06/15 11:57:05;;;;;;;16.02;14.02;;;;;;;;;;5059037;28;20475;-64
2023/06/15 11:59:33;;;;;;;15.73;14.13;;;;;;;;;;5056401;28;20033;-65
2023/06/15 12:01:59;;;;;;;15.45;13.93;;;615.00;2432.00;;;;;;5060024;28;20104;-73
2023/06/15 12:04:30;;;;;;;15.77;14.10;;;614.80;2432.00;;;;;;5060665;28;20067;-65
2023/06/15 12:06:56;;;;;;;14.00;12.57;;;614.80;2432.00;;;;;;5056888;28;20061;-64
2023/06/15 12:09:22;;;;;;;14.02;12.50;;;614.80;2432.00;;;;;;5060507;28;20041;-64
2023/06/15 12:11:48;;;;;;;13.68;12.27;;;614.90;2432.00;;;;;;5058580;28;20055;-65
2023/06/15 12:14:20;;;;;;;14.45;12.88;;;615.00;2432.00;;;;;;5066748;28;20462;-64
2023/06/15 12:16:51;;;;;;;13.80;12.50;;;615.00;2432.00;;;;;;5055539;28;20013;-63
2023/06/15 12:19:18;;;;;;;13.38;11.98;;;615.00;2432.00;;;;;;5059217;28;20021;-63
2023/06/15 12:21:45;;;;;;;16.70;13.63;;;614.90;2432.00;;;;;;5062082;28;20425;-63
2023/06/15 12:24:17;;;;;;;14.73;13.32;;;614.80;2432.00;;;;;;5053274;28;20021;-63
2023/06/15 12:26:55;;;;;;;14.00;12.70;;;614.70;2432.00;;;;;;5059790;28;20035;-64
2023/06/15 12:29:22;;;;;;;19.13;12.52;;;614.80;2432.00;;;;;;5054468;28;20051;-75
2023/06/15 12:31:55;;;;;;;14.50;13.13;;;614.70;2432.00;;;;;;5060728;28;20509;-68
2023/06/15 12:34:25;;;;;;;17.42;12.35;;;614.50;2432.00;;;;;;5059318;28;20117;-61
2023/06/15 12:36:57;;;;;;;16.27;14.20;;;589.70;2432.00;;;;;;5060057;28;20515;-63
2023/06/15 12:39:32;;;;;;;15.67;14.07;;;;;;;;;;5061290;28;20020;-63
2023/06/15 12:42:02;;;;;;;15.93;14.32;;;589.40;2432.00;;;;;;5053090;28;20063;-61
2023/06/15 12:44:29;;;;;;;16.05;14.35;;;588.80;2432.00;;;;;;5056533;28;20032;-61
2023/06/15 12:46:55;;;;;;;16.88;14.05;;;564.00;2432.00;;;;;;5056807;28;20104;-73
2023/06/15 12:49:20;;;;;;;18.80;15.13;;;563.70;2432.00;;;;;;5053928;28;20115;-60
2023/06/15 12:51:47;;;;;;;19.58;17.58;;;563.30;2432.00;;;;;;5055027;28;20024;-64
2023/06/15 12:54:13;;;;;;;18.08;16.25;;;563.40;2432.00;;;;;;5059851;28;20031;-61
2023/06/15 12:56:38;;;;;;;19.20;17.13;;;563.20;2432.00;;;;;;5051456;28;20024;-63
2023/06/15 12:59:04;;;;;;;19.90;17.90;;;538.50;2406.40;;;;;;5051446;28;20052;-61
2023/06/15 13:01:32;;;;;;;19.95;17.95;;;538.50;2406.40;;;;;;5056861;28;20036;-62
2023/06/15 13:03:58;;;;;;;19.98;17.85;;;538.20;2406.40;;;;;;5057193;28;20025;-62
2023/06/15 13:06:24;;;;;;;19.92;17.52;;;538.00;2406.40;;;;;;5056006;28;20033;-62
2023/06/15 13:08:51;;;;;;;21.70;19.35;;;538.00;2406.40;;;;;;5058908;28;20025;-61
2023/06/15 13:11:19;;;;;;;20.90;18.70;;;538.00;2406.40;;;;;;5053042;28;20038;-61
2023/06/15 13:13:45;;;;;;;19.88;17.80;;;537.90;2406.40;;;;;;5057477;28;20104;-61
2023/06/15 13:16:11;;;;;;;19.95;18.05;;;537.90;2406.40;;;;;;5063392;28;20039;-62
2023/06/15 13:18:37;;;;;;;20.85;18.58;;;537.80;2406.40;;;;;;5061497;28;20020;-61
2023/06/15 13:21:03;;;;;;;22.58;20.17;;;537.60;2406.40;;;;;;5053878;28;20593;-64
2023/06/15 13:23:30;;;;;;;25.63;22.95;;;537.60;2406.40;;;;;;5061016;28;20032;-62
2023/06/15 13:25:57;;;;;;;26.05;23.23;;;512.90;2380.80;;;;;;5055914;28;20021;-64
2023/06/15 13:28:22;;;;;;;25.35;22.40;;;512.90;2380.80;;;;;;5056722;28;20158;-61
2023/06/15 13:30:48;;;;;;;26.15;23.52;;;512.90;2380.80;;;;;;5060324;28;20123;-66
2023/06/15 13:33:14;;;;;;;33.58;24.63;;;;;;;;;;5062427;28;20027;-61
2023/06/15 13:35:43;;;;;;;29.38;25.90;;;;;;;;;;5057827;28;20043;-63
2023/06/15 13:38:09;;;;;;;31.33;27.83;;;;;;;;;;5051810;28;20134;-63
2023/06/15 13:40:35;;;;;;;31.20;27.02;;;;;;;;;;5057812;28;20067;-62
2023/06/15 13:43:01;;;;;;;26.23;23.30;;;;;;;;;;5063157;28;20024;-62
2023/06/15 13:45:27;;;;;;;25.92;22.42;;;;;;;;;;5069782;28;20052;-70